Terminal Aerodrome Forecast
Issued by NWS

Home | Current Version | Previous Version | Graphics & Text | Print | Product List | Glossary On
Versions: 1 2 3 4 5 6 7 8 9 10 11 12 13 14
579
FTUS43 KBIS 192334
TAFMOT
TAF
KMOT 192334Z 2000/2024 29014KT P6SM SCT150
     FM200200 29007KT P6SM SCT200
     FM201000 26005KT P6SM BKN090
     FM202000 29016KT P6SM SCT200=

USA.gov is the U.S. government's official web portal to all federal, state and local government web resources and services.